TimeCST,TemperatureF,Dew PointF,Humidity,Sea Level PressureIn,VisibilityMPH,Wind Direction,Wind SpeedMPH,Gust SpeedMPH,PrecipitationIn,Events,Conditions,WindDirDegrees,DateUTC
12:54 AM,26.1,21.0,81,29.88,10.0,West,11.5,-,N/A,,Overcast,280,2012-11-12 06:54:00
1:54 AM,26.1,19.0,75,29.90,10.0,West,15.0,20.7,N/A,,Overcast,260,2012-11-12 07:54:00
2:54 AM,26.1,18.0,71,29.90,10.0,West,13.8,-,N/A,,Overcast,280,2012-11-12 08:54:00
3:54 AM,25.0,17.1,72,29.91,10.0,WSW,15.0,21.9,N/A,,Overcast,240,2012-11-12 09:54:00
4:54 AM,23.0,14.0,68,29.95,10.0,West,15.0,25.3,N/A,,Overcast,260,2012-11-12 10:54:00
5:54 AM,21.9,14.0,72,29.94,9.0,West,19.6,26.5,0.00,Snow,Light Snow,270,2012-11-12 11:54:00
6:54 AM,21.0,12.9,71,29.96,5.0,West,13.8,23.0,0.00,Snow,Light Snow,260,2012-11-12 12:54:00
7:30 AM,21.2,12.2,68,29.91,10.0,West,13.8,-,0.00,,Overcast,260,2012-11-12 13:30:00
7:54 AM,21.9,12.9,68,29.97,6.0,WSW,17.3,23.0,0.00,Snow,Light Snow,240,2012-11-12 13:54:00
8:10 AM,21.2,10.4,63,29.91,9.0,West,13.8,21.9,0.00,,Overcast,260,2012-11-12 14:10:00
8:28 AM,21.2,12.2,68,29.91,8.0,WSW,13.8,23.0,0.00,Snow,Light Snow,250,2012-11-12 14:28:00
8:49 AM,21.2,14.0,74,29.91,2.5,WSW,15.0,-,0.00,Snow,Light Snow,250,2012-11-12 14:49:00
8:54 AM,21.0,12.9,71,29.98,4.0,West,13.8,-,0.00,Snow,Light Snow,260,2012-11-12 14:54:00
9:22 AM,21.2,10.4,63,29.92,6.0,West,16.1,26.5,0.00,Snow,Light Snow,260,2012-11-12 15:22:00
9:54 AM,21.9,10.9,63,29.99,9.0,WSW,16.1,24.2,0.00,Snow,Light Snow,240,2012-11-12 15:54:00
10:54 AM,23.0,10.9,60,29.99,10.0,West,12.7,24.2,0.00,,Overcast,270,2012-11-12 16:54:00
11:41 AM,23.0,12.2,63,29.92,1.8,West,18.4,27.6,0.00,Snow,Light Snow,260,2012-11-12 17:41:00
11:54 AM,24.1,14.0,65,29.99,4.0,WSW,12.7,20.7,0.00,Snow,Light Snow,250,2012-11-12 17:54:00
12:54 PM,24.1,14.0,65,29.99,4.0,WSW,13.8,21.9,0.00,Snow,Light Snow,250,2012-11-12 18:54:00
1:08 PM,23.0,15.8,74,29.93,2.0,WSW,15.0,26.5,0.00,Snow,Light Snow,250,2012-11-12 19:08:00
1:15 PM,23.0,15.8,74,29.93,1.0,West,12.7,-,0.00,Snow,Light Snow,260,2012-11-12 19:15:00
1:21 PM,23.0,15.8,74,29.93,2.0,West,12.7,-,0.00,Snow,Light Snow,260,2012-11-12 19:21:00
1:29 PM,23.0,15.8,74,29.93,4.0,WSW,10.4,19.6,0.00,Snow,Light Snow,250,2012-11-12 19:29:00
1:32 PM,23.0,15.8,74,29.93,1.8,West,13.8,19.6,0.00,Snow,Light Snow,260,2012-11-12 19:32:00
1:43 PM,23.0,15.8,74,29.93,2.0,West,11.5,-,0.00,Snow,Light Snow,260,2012-11-12 19:43:00
1:51 PM,24.8,15.8,69,29.93,8.0,WSW,12.7,-,0.00,,Overcast,250,2012-11-12 19:51:00
1:54 PM,24.1,15.1,69,30.00,9.0,WSW,10.4,19.6,0.00,,Overcast,250,2012-11-12 19:54:00
2:31 PM,24.8,15.8,69,29.95,2.5,WSW,11.5,20.7,0.00,Snow,Light Snow,250,2012-11-12 20:31:00
2:38 PM,23.0,17.6,80,29.95,1.2,West,15.0,21.9,0.00,Snow,Light Snow,260,2012-11-12 20:38:00
2:42 PM,24.8,17.6,74,29.95,2.0,WSW,13.8,21.9,0.00,Snow,Light Snow,250,2012-11-12 20:42:00
2:49 PM,24.8,17.6,74,29.95,9.0,West,12.7,-,0.00,,Overcast,260,2012-11-12 20:49:00
2:54 PM,24.1,16.0,71,30.02,10.0,WSW,12.7,-,0.00,,Overcast,250,2012-11-12 20:54:00
3:08 PM,24.8,15.8,69,29.96,1.8,West,15.0,21.9,0.00,Snow,Light Snow,270,2012-11-12 21:08:00
3:16 PM,23.0,17.6,80,29.96,1.0,West,11.5,20.7,0.00,Snow,Light Snow,260,2012-11-12 21:16:00
3:20 PM,23.0,15.8,74,29.97,2.5,West,15.0,21.9,0.00,Snow,Light Snow,260,2012-11-12 21:20:00
3:27 PM,24.8,17.6,74,29.97,9.0,West,12.7,21.9,0.00,,Overcast,260,2012-11-12 21:27:00
3:54 PM,24.1,17.1,75,30.05,5.0,West,12.7,-,0.00,Snow,Light Snow,260,2012-11-12 21:54:00
4:54 PM,24.1,14.0,65,30.09,10.0,West,16.1,23.0,0.00,,Overcast,270,2012-11-12 22:54:00
5:54 PM,24.1,15.1,69,30.12,10.0,West,18.4,23.0,0.00,,Overcast,270,2012-11-12 23:54:00
6:54 PM,24.1,15.1,69,30.14,9.0,West,11.5,-,0.00,,Overcast,260,2012-11-13 00:54:00
7:54 PM,24.1,15.1,69,30.18,10.0,West,11.5,19.6,N/A,,Overcast,270,2012-11-13 01:54:00
8:54 PM,24.1,15.1,69,30.21,10.0,West,15.0,-,N/A,,Overcast,260,2012-11-13 02:54:00
9:54 PM,24.1,15.1,69,30.24,10.0,West,13.8,20.7,N/A,,Overcast,270,2012-11-13 03:54:00
10:54 PM,24.1,15.1,69,30.25,10.0,West,11.5,-,N/A,,Overcast,270,2012-11-13 04:54:00
11:23 PM,24.8,15.8,69,30.19,10.0,West,12.7,18.4,N/A,,Overcast,270,2012-11-13 05:23:00
11:54 PM,24.1,15.1,69,30.27,10.0,West,11.5,-,N/A,,Overcast,270,2012-11-13 05:54:00